createdAt,value
2018-05-31T00:02:10.128Z,11.03
2018-05-31T00:04:37.309Z,10.73
2018-05-31T00:07:03.752Z,10.80
2018-05-31T00:09:30.164Z,10.23
2018-05-31T00:11:56.629Z,10.60
2018-05-31T00:14:23.033Z,10.67
2018-05-31T00:16:49.437Z,11.10
2018-05-31T00:19:16.611Z,10.57
2018-05-31T00:21:43.056Z,11.80
2018-05-31T00:24:09.471Z,11.70
2018-05-31T00:26:36.667Z,10.40
2018-05-31T00:29:03.102Z,11.50
2018-05-31T00:31:29.515Z,10.10
2018-05-31T00:33:55.918Z,10.70
2018-05-31T00:36:23.064Z,12.10
2018-05-31T00:38:50.216Z,9.80
2018-05-31T00:41:17.368Z,11.23
2018-05-31T00:43:44.506Z,11.30
2018-05-31T00:46:11.657Z,9.60
2018-05-31T00:48:38.804Z,11.30
2018-05-31T00:51:05.208Z,10.20
2018-05-31T00:53:31.616Z,11.30
2018-05-31T00:56:10.324Z,11.00
2018-05-31T00:58:36.721Z,11.70
2018-05-31T01:01:03.176Z,10.13
2018-05-31T01:03:30.326Z,12.93
2018-05-31T01:05:56.715Z,11.37
2018-05-31T01:08:23.117Z,11.80
2018-05-31T01:10:49.521Z,11.50
2018-05-31T01:13:16.003Z,10.70
2018-05-31T01:15:42.401Z,11.97
2018-05-31T01:18:08.800Z,11.20
2018-05-31T01:20:35.221Z,11.80
2018-05-31T01:23:01.654Z,12.10
2018-05-31T01:25:28.224Z,11.27
2018-05-31T01:27:56.035Z,11.67
2018-05-31T01:30:22.865Z,12.10
2018-05-31T01:32:49.385Z,11.73
2018-05-31T01:35:16.590Z,12.83
2018-05-31T01:37:44.639Z,11.87
2018-05-31T01:40:11.099Z,12.87
2018-05-31T01:42:39.115Z,12.57
2018-05-31T01:45:05.664Z,11.90
2018-05-31T01:47:32.271Z,11.87
2018-05-31T01:49:58.951Z,12.80
2018-05-31T01:52:26.179Z,12.00
2018-05-31T01:54:52.809Z,12.30
2018-05-31T01:57:19.384Z,12.07
2018-05-31T01:59:46.812Z,10.40
2018-05-31T02:02:13.394Z,11.40
2018-05-31T02:04:40.692Z,11.37
2018-05-31T02:07:07.257Z,13.17
2018-05-31T02:09:33.773Z,13.13
2018-05-31T02:12:00.420Z,11.20
2018-05-31T02:14:26.936Z,13.30
2018-05-31T02:16:53.522Z,11.47
2018-05-31T02:19:21.014Z,12.20
2018-05-31T02:21:48.201Z,11.80
2018-05-31T02:24:15.560Z,11.90
2018-05-31T02:26:41.991Z,11.93
2018-05-31T02:29:09.020Z,11.70
2018-05-31T02:31:35.596Z,12.43
2018-05-31T02:34:02.806Z,12.27
2018-05-31T02:36:31.209Z,12.27
2018-05-31T02:38:59.136Z,11.20
2018-05-31T02:41:26.975Z,11.60
2018-05-31T02:43:53.588Z,10.63
2018-05-31T02:46:20.371Z,10.63
2018-05-31T02:48:48.542Z,9.90
2018-05-31T02:51:15.191Z,10.47
2018-05-31T02:53:42.568Z,11.70
2018-05-31T02:56:10.551Z,11.33
2018-05-31T02:58:38.630Z,11.10
2018-05-31T03:01:06.199Z,10.97
2018-05-31T03:03:33.363Z,10.57
2018-05-31T03:05:59.860Z,10.73
2018-05-31T03:08:26.354Z,11.17
2018-05-31T03:10:53.917Z,11.07
2018-05-31T03:13:20.498Z,11.70
2018-05-31T03:15:47.089Z,10.40
2018-05-31T03:18:14.451Z,10.70
2018-05-31T03:20:42.385Z,10.07
2018-05-31T03:23:09.716Z,10.10
2018-05-31T03:25:37.065Z,10.80
2018-05-31T03:28:03.772Z,11.13
2018-05-31T03:30:31.090Z,13.40
2018-05-31T03:32:59.956Z,11.97
2018-05-31T03:35:28.293Z,11.30
2018-05-31T03:37:56.214Z,11.80
2018-05-31T03:40:23.551Z,9.97
2018-05-31T03:42:50.228Z,11.03
2018-05-31T03:45:17.521Z,11.23
2018-05-31T03:47:45.200Z,10.83
2018-05-31T03:50:11.620Z,11.77
2018-05-31T03:52:38.179Z,11.10
2018-05-31T03:55:05.530Z,11.17
2018-05-31T03:57:35.749Z,12.10
2018-05-31T04:00:03.075Z,11.33
2018-05-31T04:02:29.556Z,11.20
2018-05-31T04:04:56.997Z,12.40
2018-05-31T04:07:23.499Z,12.30
2018-05-31T04:09:50.076Z,12.20
2018-05-31T04:12:16.667Z,12.03
2018-05-31T04:14:43.195Z,11.30
2018-05-31T04:17:10.242Z,11.97
2018-05-31T04:19:37.537Z,12.17
2018-05-31T04:22:04.024Z,11.93
2018-05-31T04:24:31.270Z,11.13
2018-05-31T04:26:57.855Z,11.20
2018-05-31T04:29:25.217Z,11.43
2018-05-31T04:31:53.327Z,10.63
2018-05-31T04:34:22.799Z,11.03
2018-05-31T04:36:49.396Z,10.40
2018-05-31T04:39:16.014Z,11.60
2018-05-31T04:41:43.379Z,10.70
2018-05-31T04:44:11.171Z,12.23
2018-05-31T04:46:38.190Z,11.00
2018-05-31T04:49:05.384Z,11.10
2018-05-31T04:51:34.262Z,11.67
2018-05-31T04:54:02.482Z,12.33
2018-05-31T04:56:28.912Z,13.03
2018-05-31T04:58:56.785Z,11.27
2018-05-31T05:01:23.893Z,12.47
2018-05-31T05:03:51.367Z,11.90
2018-05-31T05:06:17.888Z,12.70
2018-05-31T05:08:44.451Z,12.97
2018-05-31T05:11:11.699Z,11.20
2018-05-31T05:13:38.240Z,12.17
2018-05-31T05:16:06.106Z,12.57
2018-05-31T05:18:33.362Z,12.10
2018-05-31T05:21:00.579Z,10.70
2018-05-31T05:23:27.097Z,12.87
2018-05-31T05:25:54.282Z,11.40
2018-05-31T05:28:20.816Z,11.60
2018-05-31T05:30:47.300Z,9.93
2018-05-31T05:33:14.546Z,10.50
2018-05-31T05:35:40.979Z,10.97
2018-05-31T05:38:08.188Z,9.80
2018-05-31T05:40:34.634Z,9.60
2018-05-31T05:43:01.091Z,9.77
2018-05-31T05:45:28.281Z,9.67
2018-05-31T05:47:54.752Z,9.67
2018-05-31T05:50:21.185Z,9.57
2018-05-31T05:52:47.615Z,8.80
2018-05-31T05:55:14.082Z,9.47
2018-05-31T05:57:41.261Z,8.90
2018-05-31T06:00:07.675Z,8.67
2018-05-31T06:02:34.093Z,7.77
2018-05-31T06:05:02.009Z,8.40
2018-05-31T06:07:28.428Z,8.40
2018-05-31T06:09:54.887Z,7.47
2018-05-31T06:12:22.017Z,8.00
2018-05-31T06:14:48.432Z,7.63
2018-05-31T06:17:15.589Z,7.37
2018-05-31T06:19:42.206Z,8.87
2018-05-31T06:22:08.573Z,8.90
2018-05-31T06:24:35.051Z,7.73
2018-05-31T06:27:01.437Z,8.40
2018-05-31T06:29:27.854Z,8.03
2018-05-31T06:31:54.355Z,7.87
2018-05-31T06:34:20.776Z,7.57
2018-05-31T06:36:47.185Z,8.30
2018-05-31T06:39:13.576Z,7.17
2018-05-31T06:41:39.975Z,8.93
2018-05-31T06:44:06.386Z,8.30
2018-05-31T06:46:32.787Z,7.43
2018-05-31T06:48:59.920Z,7.60
2018-05-31T06:51:26.323Z,8.60
2018-05-31T06:53:52.726Z,7.50
2018-05-31T06:56:19.107Z,7.90
2018-05-31T06:58:46.279Z,8.23
2018-05-31T07:01:13.406Z,8.67
2018-05-31T07:03:39.822Z,7.77
2018-05-31T07:06:06.209Z,8.57
2018-05-31T07:08:32.608Z,6.97
2018-05-31T07:11:00.566Z,7.90
2018-05-31T07:13:26.996Z,7.60
2018-05-31T07:15:53.387Z,7.83
2018-05-31T07:18:19.784Z,8.50
2018-05-31T07:20:46.194Z,8.20
2018-05-31T07:23:12.598Z,7.03
2018-05-31T07:25:38.982Z,7.43
2018-05-31T07:28:05.391Z,8.17
2018-05-31T07:30:31.789Z,8.40
2018-05-31T07:32:58.187Z,7.50
2018-05-31T07:35:24.630Z,7.40
2018-05-31T07:37:51.786Z,7.50
2018-05-31T07:40:18.941Z,7.00
2018-05-31T07:42:46.071Z,6.00
2018-05-31T07:45:12.458Z,6.33
2018-05-31T07:47:38.865Z,6.93
2018-05-31T07:50:05.278Z,6.00
2018-05-31T07:52:32.452Z,6.30
2018-05-31T07:54:58.845Z,6.67
2018-05-31T07:57:26.719Z,6.57
2018-05-31T07:59:53.120Z,6.90
2018-05-31T08:02:19.495Z,7.03
2018-05-31T08:04:46.634Z,6.53
2018-05-31T08:07:13.048Z,6.60
2018-05-31T08:09:40.930Z,6.40
2018-05-31T08:12:07.309Z,6.83
2018-05-31T08:14:33.692Z,7.07
2018-05-31T08:17:00.140Z,7.30
2018-05-31T08:19:27.271Z,6.53
2018-05-31T08:21:55.132Z,6.80
2018-05-31T08:24:21.515Z,6.50
2018-05-31T08:26:47.902Z,6.80
2018-05-31T08:29:14.274Z,7.20
2018-05-31T08:31:40.702Z,6.80
2018-05-31T08:34:07.101Z,7.40
2018-05-31T08:36:33.508Z,6.90
2018-05-31T08:38:59.906Z,7.67
2018-05-31T08:41:26.433Z,6.67
2018-05-31T08:43:53.581Z,7.67
2018-05-31T08:46:20.783Z,6.53
2018-05-31T08:48:47.203Z,7.67
2018-05-31T08:51:13.612Z,6.97
2018-05-31T08:53:40.004Z,7.37
2018-05-31T08:56:06.440Z,7.00
2018-05-31T08:58:33.630Z,7.60
2018-05-31T09:01:00.025Z,7.30
2018-05-31T09:03:27.935Z,7.23
2018-05-31T09:05:54.337Z,7.07
2018-05-31T09:08:21.478Z,6.97
2018-05-31T09:10:47.888Z,7.60
2018-05-31T09:13:14.292Z,7.13
2018-05-31T09:15:40.680Z,8.13
2018-05-31T09:18:07.072Z,7.53
2018-05-31T09:20:33.489Z,7.43
2018-05-31T09:22:59.883Z,7.67
2018-05-31T09:25:27.084Z,7.07
2018-05-31T09:27:53.492Z,8.57
2018-05-31T09:30:19.890Z,7.10
2018-05-31T09:32:47.766Z,7.17
2018-05-31T09:35:14.908Z,7.70
2018-05-31T09:37:42.039Z,8.67
2018-05-31T09:40:08.426Z,7.17
2018-05-31T09:42:34.832Z,6.97
2018-05-31T09:45:01.981Z,7.47
2018-05-31T09:47:29.168Z,8.17
2018-05-31T09:49:55.572Z,7.37
2018-05-31T09:52:22.709Z,6.53
2018-05-31T09:54:50.585Z,7.07
2018-05-31T09:57:17.722Z,7.00
2018-05-31T09:59:45.824Z,7.00
2018-05-31T10:02:12.226Z,7.63
2018-05-31T10:04:38.631Z,7.70
2018-05-31T10:07:05.028Z,6.13
2018-05-31T10:09:32.159Z,7.07
2018-05-31T10:11:58.565Z,6.70
2018-05-31T10:14:24.960Z,7.50
2018-05-31T10:16:51.402Z,5.97
2018-05-31T10:19:18.761Z,6.23
2018-05-31T10:21:45.134Z,6.77
2018-05-31T10:24:11.514Z,6.60
2018-05-31T10:26:37.890Z,6.97
2018-05-31T10:29:04.364Z,7.10
2018-05-31T10:31:30.779Z,6.13
2018-05-31T10:33:57.890Z,6.63
2018-05-31T10:36:24.287Z,6.63
2018-05-31T10:38:50.675Z,6.37
2018-05-31T10:41:17.067Z,8.13
2018-05-31T10:43:43.447Z,6.57
2018-05-31T10:46:10.584Z,7.37
2018-05-31T10:48:37.174Z,7.10
2018-05-31T10:51:03.589Z,6.90
2018-05-31T10:53:29.970Z,7.67
2018-05-31T10:55:56.359Z,7.90
2018-05-31T10:58:22.763Z,6.70
2018-05-31T17:04:10.535Z,8.87
2018-05-31T17:06:37.205Z,7.50
2018-05-31T17:09:04.489Z,7.53
2018-05-31T17:11:31.627Z,7.40
2018-05-31T17:13:58.767Z,6.80
2018-05-31T17:16:25.163Z,7.17
2018-05-31T17:18:51.554Z,6.90
2018-05-31T17:21:18.797Z,7.07
2018-05-31T17:23:45.943Z,7.60
2018-05-31T17:26:13.075Z,7.50
2018-05-31T17:28:39.465Z,7.03
2018-05-31T17:31:05.846Z,8.20
2018-05-31T17:33:32.970Z,6.90
2018-05-31T17:35:59.383Z,7.40
2018-05-31T17:38:25.770Z,7.53
2018-05-31T17:40:52.221Z,7.67
2018-05-31T17:43:19.348Z,8.30
2018-05-31T17:45:45.749Z,8.50
2018-05-31T17:48:12.197Z,8.23
2018-05-31T17:50:40.079Z,7.40
2018-05-31T17:53:06.454Z,8.10
2018-05-31T17:55:32.850Z,7.50
2018-05-31T17:57:59.227Z,7.53
2018-05-31T18:00:25.656Z,7.93
2018-05-31T18:02:52.060Z,7.47
2018-05-31T18:05:19.198Z,8.03
2018-05-31T18:07:46.510Z,8.07
2018-05-31T18:10:12.937Z,7.93
2018-05-31T18:12:39.348Z,7.97
2018-05-31T18:15:05.780Z,7.67
2018-05-31T18:17:32.190Z,8.33
2018-05-31T18:19:58.580Z,8.00
2018-05-31T18:22:25.625Z,8.30
2018-05-31T18:24:52.075Z,7.47
2018-05-31T18:27:20.114Z,9.07
2018-05-31T18:29:46.507Z,8.07
2018-05-31T18:32:13.682Z,8.50
2018-05-31T18:34:40.096Z,7.33
2018-05-31T18:37:07.961Z,7.60
2018-05-31T18:39:35.082Z,7.27
2018-05-31T18:42:01.508Z,8.00
2018-05-31T18:44:29.431Z,7.53
2018-05-31T18:46:55.817Z,8.10
2018-05-31T18:49:22.198Z,6.80
2018-05-31T18:51:49.181Z,6.40
2018-05-31T18:54:15.591Z,10.97
2018-05-31T18:56:41.988Z,9.40
2018-05-31T18:59:09.202Z,9.10
2018-05-31T19:01:35.779Z,8.30
2018-05-31T19:04:02.223Z,7.53
2018-05-31T19:06:28.639Z,7.77
2018-05-31T19:08:55.960Z,8.20
2018-05-31T19:11:22.360Z,9.33
2018-05-31T19:13:54.819Z,9.10
2018-05-31T19:16:21.219Z,14.13
2018-05-31T19:19:06.417Z,29.80
2018-05-31T19:21:33.541Z,11.40
2018-05-31T19:24:07.575Z,9.27
2018-05-31T19:26:34.753Z,10.50
2018-05-31T19:29:01.141Z,8.60
2018-05-31T19:31:27.583Z,7.47
2018-05-31T19:33:53.966Z,7.60
2018-05-31T19:36:26.359Z,10.00
2018-05-31T19:38:52.754Z,11.30
2018-05-31T19:41:20.108Z,11.30
2018-05-31T19:43:52.581Z,11.20
2018-05-31T19:46:18.967Z,10.30
2018-05-31T19:48:45.382Z,11.53
2018-05-31T19:51:11.819Z,10.20
2018-05-31T19:53:43.334Z,14.10
2018-05-31T19:56:09.742Z,10.50
2018-05-31T19:58:42.822Z,10.90
2018-05-31T20:01:15.941Z,8.43
2018-05-31T20:03:42.386Z,8.37
2018-05-31T20:06:08.800Z,7.33
2018-05-31T20:08:40.946Z,7.80
2018-05-31T20:11:08.097Z,7.63
2018-05-31T20:13:35.281Z,8.03
2018-05-31T20:16:01.692Z,7.40
2018-05-31T20:18:28.825Z,8.30
2018-05-31T20:20:56.025Z,7.67
2018-05-31T20:23:22.417Z,6.80
2018-05-31T20:25:49.633Z,8.10
2018-05-31T20:28:16.025Z,7.60
2018-05-31T20:30:42.438Z,7.07
2018-05-31T20:33:09.380Z,7.80
2018-05-31T20:35:36.541Z,7.03
2018-05-31T20:38:03.725Z,7.70
2018-05-31T20:40:30.132Z,6.90
2018-05-31T20:42:56.607Z,8.00
2018-05-31T20:45:23.003Z,7.77
2018-05-31T20:47:49.378Z,7.20
2018-05-31T20:50:15.763Z,6.60
2018-05-31T20:52:42.879Z,7.53
2018-05-31T20:55:09.279Z,7.90
2018-05-31T20:57:35.707Z,7.17
2018-05-31T21:00:02.143Z,7.30
2018-05-31T21:02:28.544Z,7.53
2018-05-31T21:04:55.680Z,8.73
2018-05-31T21:07:22.818Z,9.00
2018-05-31T21:09:49.970Z,8.77
2018-05-31T21:12:17.149Z,8.33
2018-05-31T21:14:43.543Z,8.40
2018-05-31T21:17:11.415Z,8.37
2018-05-31T21:19:38.565Z,9.43
2018-05-31T21:22:05.932Z,9.33
2018-05-31T21:24:33.103Z,8.87
2018-05-31T21:26:59.507Z,8.50
2018-05-31T21:29:26.633Z,7.93
2018-05-31T21:31:53.040Z,9.07
2018-05-31T21:34:19.496Z,9.73
2018-05-31T21:36:45.919Z,9.50
2018-05-31T21:39:12.337Z,9.30
2018-05-31T21:41:38.731Z,9.33
2018-05-31T21:44:06.040Z,10.00
2018-05-31T21:46:32.441Z,10.10
2018-05-31T21:48:58.825Z,9.67
2018-05-31T21:51:25.215Z,9.27
2018-05-31T21:53:51.616Z,10.27
2018-05-31T21:56:18.773Z,10.00
2018-05-31T21:58:45.907Z,10.40
2018-05-31T22:01:13.047Z,8.30
2018-05-31T22:03:39.434Z,9.13
2018-05-31T22:06:05.820Z,8.20
2018-05-31T22:08:32.211Z,9.97
2018-05-31T22:10:58.615Z,9.30
2018-05-31T22:13:25.003Z,9.27
2018-05-31T22:15:51.380Z,9.03
2018-05-31T22:18:17.814Z,9.00
2018-05-31T22:20:44.198Z,8.40
2018-05-31T22:23:10.685Z,9.90
2018-05-31T22:25:37.096Z,9.30
2018-05-31T22:28:04.259Z,10.03
2018-05-31T22:30:31.419Z,10.20
2018-05-31T22:32:57.854Z,10.17
2018-05-31T22:35:24.249Z,9.57
2018-05-31T22:37:51.497Z,9.97
2018-05-31T22:40:17.897Z,10.87
2018-05-31T22:42:45.028Z,10.90
2018-05-31T22:45:11.415Z,8.93
2018-05-31T22:47:37.802Z,9.70
2018-05-31T22:50:04.234Z,10.80
2018-05-31T22:52:30.703Z,10.47
2018-05-31T22:54:57.832Z,10.50
2018-05-31T22:57:24.230Z,9.60
2018-05-31T22:59:50.658Z,9.30
2018-05-31T23:02:17.079Z,11.70
2018-05-31T23:04:44.225Z,9.30
2018-05-31T23:07:11.372Z,10.57
2018-05-31T23:09:38.508Z,10.10
2018-05-31T23:12:04.900Z,10.47
2018-05-31T23:14:31.297Z,11.40
2018-05-31T23:16:58.467Z,10.90
2018-05-31T23:19:24.859Z,10.80
2018-05-31T23:21:52.011Z,10.80
2018-05-31T23:24:19.132Z,11.17
2018-05-31T23:26:45.520Z,9.23
2018-05-31T23:29:11.962Z,9.37
2018-05-31T23:31:38.366Z,9.73
2018-05-31T23:34:05.498Z,10.00
2018-05-31T23:36:33.372Z,9.07
2018-05-31T23:38:59.840Z,9.93
2018-05-31T23:41:26.247Z,9.80
2018-05-31T23:43:53.393Z,9.40
2018-05-31T23:46:20.542Z,9.03
2018-05-31T23:48:46.944Z,9.50
2018-05-31T23:51:13.380Z,9.87
2018-05-31T23:53:39.858Z,10.37
2018-05-31T23:56:06.246Z,9.80
2018-05-31T23:58:32.631Z,9.93
